createdAt,value
2022-09-12T00:01:04.550Z,11.44
2022-09-12T00:03:31.776Z,11.42
2022-09-12T00:05:58.858Z,11.39
2022-09-12T00:08:26.254Z,11.28
2022-09-12T00:10:53.325Z,10.98
2022-09-12T00:13:20.433Z,11.05
2022-09-12T00:15:47.530Z,10.91
2022-09-12T00:18:16.884Z,10.83
2022-09-12T00:20:45.568Z,10.99
2022-09-12T00:23:14.004Z,11.00
2022-09-12T00:25:42.771Z,11.06
2022-09-12T00:28:10.589Z,11.14
2022-09-12T00:30:45.748Z,11.11
2022-09-12T00:33:13.881Z,11.12
2022-09-12T00:35:42.751Z,11.05
2022-09-12T00:38:10.238Z,10.81
2022-09-12T00:40:37.385Z,10.71
2022-09-12T00:43:05.203Z,10.77
2022-09-12T00:45:32.323Z,10.73
2022-09-12T00:48:04.404Z,10.73
2022-09-12T00:50:33.087Z,10.97
2022-09-12T00:53:04.861Z,11.11
2022-09-12T00:55:45.893Z,11.11
2022-09-12T00:58:25.813Z,11.04
2022-09-12T01:00:52.987Z,11.07
2022-09-12T01:03:23.147Z,11.03
2022-09-12T01:06:11.795Z,11.14
2022-09-12T01:08:41.003Z,11.10
2022-09-12T01:11:11.339Z,11.13
2022-09-12T01:13:38.572Z,11.11
2022-09-12T01:16:07.371Z,11.07
2022-09-12T01:19:12.795Z,11.06
2022-09-12T01:21:59.172Z,11.05
2022-09-12T01:24:35.311Z,11.06
2022-09-12T01:27:20.637Z,11.00
2022-09-12T01:30:44.371Z,11.05
2022-09-12T01:33:27.192Z,11.08
2022-09-12T01:36:25.944Z,11.09
2022-09-12T01:39:01.873Z,11.07
2022-09-12T01:41:50.226Z,10.95
2022-09-12T01:44:34.360Z,10.79
2022-09-12T01:47:10.235Z,10.56
2022-09-12T01:49:58.044Z,10.39
2022-09-12T01:52:28.267Z,10.32
2022-09-12T01:55:10.291Z,10.45
2022-09-12T01:57:48.959Z,10.44
2022-09-12T02:00:16.982Z,10.32
2022-09-12T02:02:50.705Z,10.17
2022-09-12T02:05:25.328Z,10.15
2022-09-12T02:08:01.694Z,10.20
2022-09-12T02:10:34.330Z,10.03
2022-09-12T02:13:03.797Z,10.10
2022-09-12T02:15:38.623Z,10.18
2022-09-12T02:18:06.789Z,10.26
2022-09-12T02:20:54.882Z,10.35
2022-09-12T02:23:28.903Z,10.36
2022-09-12T02:26:02.192Z,10.44
2022-09-12T02:28:36.005Z,10.46
2022-09-12T02:31:06.015Z,10.35
2022-09-12T02:33:53.357Z,10.28
2022-09-12T02:36:54.747Z,10.31
2022-09-12T02:39:21.898Z,10.32
2022-09-12T02:41:51.991Z,10.18
2022-09-12T02:44:19.955Z,10.21
2022-09-12T02:46:53.115Z,10.01
2022-09-12T02:49:20.227Z,9.97
2022-09-12T02:51:48.814Z,9.87
2022-09-12T02:54:18.085Z,9.93
2022-09-12T02:56:46.467Z,9.95
2022-09-12T02:59:18.905Z,9.89
2022-09-12T03:01:55.149Z,9.83
2022-09-12T03:04:53.856Z,9.75
2022-09-12T03:07:24.361Z,9.68
2022-09-12T03:10:29.500Z,9.70
2022-09-12T03:13:22.886Z,9.58
2022-09-12T03:16:07.953Z,9.53
2022-09-12T03:18:53.291Z,9.53
2022-09-12T03:21:20.391Z,9.54
2022-09-12T03:23:59.947Z,9.49
2022-09-12T03:26:35.485Z,9.55
2022-09-12T03:29:06.485Z,9.47
2022-09-12T03:31:33.792Z,9.50
2022-09-12T03:34:01.033Z,9.41
2022-09-12T03:36:30.676Z,9.48
2022-09-12T03:38:57.780Z,9.55
2022-09-12T03:41:24.912Z,9.29
2022-09-12T03:43:52.075Z,9.49
2022-09-12T03:46:19.135Z,9.49
2022-09-12T03:48:46.238Z,9.53
2022-09-12T03:51:13.346Z,9.49
2022-09-12T03:53:40.450Z,9.45
2022-09-12T03:56:13.620Z,9.48
2022-09-12T03:59:07.652Z,9.60
2022-09-12T04:01:35.071Z,9.94
2022-09-12T04:04:02.397Z,9.93
2022-09-12T04:06:29.885Z,9.93
2022-09-12T04:08:57.162Z,9.89
2022-09-12T04:11:24.344Z,10.00
2022-09-12T04:13:51.634Z,9.86
2022-09-12T04:16:19.174Z,9.83
2022-09-12T04:18:46.866Z,9.82
2022-09-12T04:21:16.796Z,9.78
2022-09-12T04:23:44.301Z,9.78
2022-09-12T04:26:11.907Z,9.58
2022-09-12T04:28:39.430Z,9.50
2022-09-12T04:31:18.170Z,9.47
2022-09-12T04:33:45.860Z,9.49
2022-09-12T04:36:16.774Z,9.47
2022-09-12T04:38:45.432Z,9.46
2022-09-12T04:41:12.538Z,9.45
2022-09-12T04:43:39.723Z,9.41
2022-09-12T04:46:08.984Z,9.19
2022-09-12T04:48:36.740Z,9.39
2022-09-12T04:51:14.885Z,9.26
2022-09-12T04:53:43.152Z,9.14
2022-09-12T04:56:11.620Z,9.12
2022-09-12T04:58:39.176Z,9.02
2022-09-12T05:01:11.645Z,9.14
2022-09-12T05:03:39.890Z,9.12
2022-09-12T05:06:09.923Z,9.38
2022-09-12T05:08:37.372Z,9.68
2022-09-12T05:11:07.654Z,9.65
2022-09-12T05:13:35.035Z,9.73
2022-09-12T05:16:04.777Z,9.82
2022-09-12T05:18:33.851Z,9.92
2022-09-12T05:21:02.496Z,9.87
2022-09-12T05:23:30.009Z,9.88
2022-09-12T05:25:59.095Z,9.72
2022-09-12T05:28:30.280Z,9.77
2022-09-12T05:31:05.143Z,9.71
2022-09-12T05:33:33.637Z,9.73
2022-09-12T05:36:01.487Z,9.58
2022-09-12T05:38:29.400Z,9.56
2022-09-12T05:41:07.751Z,9.61
2022-09-12T05:43:35.893Z,9.73
2022-09-12T05:46:05.038Z,9.85
2022-09-12T05:48:34.436Z,9.74
2022-09-12T05:51:09.379Z,9.67
2022-09-12T05:53:37.908Z,9.87
2022-09-12T05:56:04.999Z,9.76
2022-09-12T05:58:32.502Z,9.80
2022-09-12T06:01:19.377Z,10.04
2022-09-12T06:03:51.791Z,9.90
2022-09-12T06:06:21.703Z,10.07
2022-09-12T06:08:51.117Z,10.21
2022-09-12T06:11:21.154Z,10.24
2022-09-12T06:13:48.797Z,9.86
2022-09-12T06:16:18.154Z,9.76
2022-09-12T06:19:12.391Z,9.58
2022-09-12T06:21:40.069Z,9.68
2022-09-12T06:24:10.226Z,9.72
2022-09-12T06:26:38.005Z,9.68
2022-09-12T06:29:05.237Z,9.71
2022-09-12T06:31:37.656Z,9.65
2022-09-12T06:34:11.256Z,9.66
2022-09-12T06:36:41.416Z,9.77
2022-09-12T06:39:12.191Z,9.88
2022-09-12T06:41:43.491Z,9.91
2022-09-12T06:44:16.594Z,9.82
2022-09-12T06:46:44.555Z,9.99
2022-09-12T06:49:12.028Z,9.68
2022-09-12T06:51:39.480Z,9.78
2022-09-12T06:54:06.537Z,9.88
2022-09-12T06:56:34.232Z,9.83
2022-09-12T06:59:01.310Z,10.10
2022-09-12T07:01:31.237Z,10.04
2022-09-12T07:04:00.222Z,10.22
2022-09-12T07:06:32.408Z,10.20
2022-09-12T07:09:01.215Z,10.19
2022-09-12T07:11:34.618Z,10.31
2022-09-12T07:14:04.179Z,10.28
2022-09-12T07:16:31.555Z,10.30
2022-09-12T07:19:01.694Z,10.58
2022-09-12T07:21:29.950Z,10.69
2022-09-12T07:24:00.358Z,10.64
2022-09-12T07:26:29.410Z,10.74
2022-09-12T07:29:18.701Z,10.91
2022-09-12T07:31:45.734Z,10.60
2022-09-12T07:34:14.019Z,10.60
2022-09-12T07:36:41.142Z,10.79
2022-09-12T07:39:08.360Z,10.96
2022-09-12T07:41:35.411Z,10.74
2022-09-12T07:44:03.608Z,10.58
2022-09-12T07:46:31.514Z,10.58
2022-09-12T07:49:00.413Z,10.64
2022-09-12T07:51:30.367Z,10.51
2022-09-12T07:53:58.230Z,10.73
2022-09-12T07:56:30.178Z,10.60
2022-09-12T07:58:59.148Z,10.46
2022-09-12T08:01:26.872Z,10.53
2022-09-12T08:03:57.008Z,10.51
2022-09-12T08:06:25.925Z,10.70
2022-09-12T08:08:55.804Z,10.57
2022-09-12T08:11:24.321Z,10.57
2022-09-12T08:13:56.178Z,10.61
2022-09-12T08:16:31.326Z,10.70
2022-09-12T08:19:01.013Z,10.57
2022-09-12T08:21:30.759Z,10.58
2022-09-12T08:24:00.974Z,10.61
2022-09-12T08:26:29.110Z,10.99
2022-09-12T08:28:56.647Z,10.73
2022-09-12T08:31:25.555Z,10.97
2022-09-12T08:33:55.181Z,10.77
2022-09-12T08:36:25.787Z,10.85
2022-09-12T08:39:00.273Z,10.99
2022-09-12T08:41:45.547Z,11.05
2022-09-12T08:44:45.129Z,11.18
2022-09-12T08:47:31.608Z,11.32
2022-09-12T08:50:10.151Z,11.11
2022-09-12T08:52:52.188Z,11.07
2022-09-12T08:55:25.378Z,11.07
2022-09-12T08:57:52.842Z,11.46
2022-09-12T09:00:21.600Z,11.19
2022-09-12T09:03:00.701Z,11.31
2022-09-12T09:05:51.466Z,11.22
2022-09-12T09:08:38.827Z,11.19
2022-09-12T09:11:26.966Z,11.48
2022-09-12T09:14:40.548Z,11.51
2022-09-12T09:17:41.075Z,11.62
2022-09-12T09:20:30.227Z,11.74
2022-09-12T09:23:01.599Z,11.58
2022-09-12T09:26:15.259Z,11.90
2022-09-12T09:28:52.281Z,11.79
2022-09-12T09:31:24.390Z,11.68
2022-09-12T09:33:54.181Z,11.66
2022-09-12T09:36:22.619Z,11.75
2022-09-12T09:39:06.711Z,11.77
2022-09-12T09:41:53.038Z,11.74
2022-09-12T09:44:20.689Z,11.80
2022-09-12T09:46:54.332Z,11.51
2022-09-12T09:49:26.132Z,11.85
2022-09-12T09:51:55.660Z,11.73
2022-09-12T09:54:32.296Z,11.86
2022-09-12T09:56:59.377Z,11.82
2022-09-12T09:59:34.225Z,11.36
2022-09-12T10:02:21.829Z,11.84
2022-09-12T10:04:58.860Z,11.82
2022-09-12T10:07:27.234Z,11.81
2022-09-12T10:10:17.160Z,12.02
2022-09-12T10:12:44.670Z,12.13
2022-09-12T10:15:20.876Z,12.08
2022-09-12T10:17:50.239Z,12.07
2022-09-12T10:20:40.465Z,11.89
2022-09-12T10:23:19.869Z,11.72
2022-09-12T10:25:53.613Z,11.77
2022-09-12T10:28:46.389Z,11.90
2022-09-12T10:31:29.231Z,11.89
2022-09-12T10:34:00.149Z,12.21
2022-09-12T10:36:37.420Z,12.26
2022-09-12T10:39:05.487Z,11.93
2022-09-12T10:41:38.984Z,11.87
2022-09-12T10:44:08.174Z,11.86
2022-09-12T10:46:35.465Z,12.13
2022-09-12T10:49:21.610Z,12.30
2022-09-12T10:51:49.203Z,12.48
2022-09-12T10:54:21.562Z,12.33
2022-09-12T10:56:48.605Z,12.51
2022-09-12T10:59:24.387Z,12.79
2022-09-12T11:02:01.783Z,12.57
2022-09-12T11:04:46.210Z,12.50
2022-09-12T11:07:31.456Z,12.63
2022-09-12T11:10:17.233Z,12.76
2022-09-12T11:12:58.069Z,12.73
2022-09-12T11:15:43.104Z,12.90
2022-09-12T11:18:28.338Z,12.80
2022-09-12T11:21:26.011Z,12.83
2022-09-12T11:24:21.698Z,12.92
2022-09-12T11:26:52.054Z,12.74
2022-09-12T11:29:28.201Z,12.83
2022-09-12T11:32:23.522Z,12.97
2022-09-12T11:35:18.277Z,12.76
2022-09-12T11:38:00.480Z,12.83
2022-09-12T11:40:36.412Z,12.81
2022-09-12T11:43:43.963Z,12.69
2022-09-12T11:46:22.984Z,12.46
2022-09-12T11:49:14.489Z,12.68
2022-09-12T11:52:04.641Z,12.52
2022-09-12T11:55:05.962Z,12.51
2022-09-12T11:57:51.464Z,12.65
2022-09-12T12:00:21.126Z,12.66
2022-09-12T12:03:11.488Z,12.81
2022-09-12T12:05:55.730Z,12.57
2022-09-12T12:08:25.186Z,12.49
2022-09-12T12:11:04.230Z,12.51
2022-09-12T12:13:40.429Z,12.52
2022-09-12T12:16:15.913Z,12.46
2022-09-12T12:18:44.152Z,12.44
2022-09-12T12:21:26.706Z,12.62
2022-09-12T12:24:08.900Z,12.56
2022-09-12T12:26:39.559Z,12.50
2022-09-12T12:29:13.435Z,12.61
2022-09-12T12:32:19.306Z,12.58
2022-09-12T12:34:47.718Z,12.73
2022-09-12T12:37:21.065Z,13.03
2022-09-12T12:39:48.424Z,13.28
2022-09-12T12:42:34.407Z,13.01
2022-09-12T12:45:26.785Z,12.82
2022-09-12T12:47:59.404Z,13.16
2022-09-12T12:50:31.240Z,13.26
2022-09-12T12:53:03.717Z,13.03
2022-09-12T12:55:42.874Z,13.06
2022-09-12T12:58:33.308Z,12.86
2022-09-12T13:01:03.391Z,12.82
2022-09-12T13:03:34.177Z,12.79
2022-09-12T13:06:03.433Z,12.89
2022-09-12T13:08:33.189Z,12.92
2022-09-12T13:11:08.796Z,13.16
2022-09-12T13:13:47.712Z,13.25
2022-09-12T13:16:39.934Z,12.97
2022-09-12T13:19:27.395Z,12.92
2022-09-12T13:22:01.606Z,13.02
2022-09-12T13:24:28.908Z,13.18
2022-09-12T13:26:57.851Z,13.11
2022-09-12T13:29:26.999Z,13.05
2022-09-12T13:31:57.231Z,12.94
2022-09-12T13:34:31.905Z,13.09
2022-09-12T13:37:30.122Z,13.25
2022-09-12T13:40:31.886Z,13.32
2022-09-12T13:43:10.160Z,13.19
2022-09-12T13:45:42.041Z,13.21
2022-09-12T13:48:29.491Z,13.27
2022-09-12T13:51:02.721Z,13.31
2022-09-12T13:53:36.777Z,13.21
2022-09-12T13:56:03.898Z,13.25
2022-09-12T13:58:34.654Z,13.28
2022-09-12T14:01:12.286Z,13.06
2022-09-12T14:04:08.881Z,12.96
2022-09-12T14:06:50.218Z,13.01
2022-09-12T14:09:25.533Z,13.03
2022-09-12T14:11:53.810Z,12.90
2022-09-12T14:14:33.585Z,13.05
2022-09-12T14:17:01.123Z,12.99
2022-09-12T14:19:29.387Z,13.04
2022-09-12T14:21:57.823Z,13.02
2022-09-12T14:24:25.951Z,13.11
2022-09-12T14:26:57.020Z,13.07
2022-09-12T14:29:25.679Z,13.23
2022-09-12T14:32:04.919Z,13.09
2022-09-12T14:34:32.095Z,13.33
2022-09-12T14:36:59.585Z,13.18
2022-09-12T14:39:33.866Z,13.05
2022-09-12T14:42:05.383Z,12.99
2022-09-12T14:44:34.215Z,13.00
2022-09-12T14:47:13.374Z,13.07
2022-09-12T14:49:41.350Z,12.99
2022-09-12T14:52:21.647Z,13.12
2022-09-12T14:55:44.732Z,13.14
2022-09-12T14:58:21.314Z,12.90
2022-09-12T15:01:01.989Z,12.99
2022-09-12T15:03:31.500Z,13.19
2022-09-12T15:06:00.155Z,13.21
2022-09-12T15:08:27.340Z,12.88
2022-09-12T15:10:55.188Z,12.95
2022-09-12T15:13:26.062Z,12.90
2022-09-12T15:15:58.870Z,12.73
2022-09-12T15:18:28.238Z,12.77
2022-09-12T15:20:57.898Z,12.75
2022-09-12T15:23:49.609Z,12.80
2022-09-12T15:26:30.596Z,12.87
2022-09-12T15:28:58.136Z,12.86
2022-09-12T15:31:32.606Z,12.74
2022-09-12T15:34:01.598Z,12.72
2022-09-12T15:36:29.743Z,12.67
2022-09-12T15:38:57.880Z,12.65
2022-09-12T15:41:31.944Z,12.68
2022-09-12T15:43:59.270Z,12.70
2022-09-12T15:46:27.237Z,12.63
2022-09-12T15:48:54.731Z,12.59
2022-09-12T15:51:22.902Z,12.51
2022-09-12T15:53:51.373Z,12.28
2022-09-12T15:56:21.298Z,12.21
2022-09-12T15:58:58.714Z,12.38
2022-09-12T16:01:28.775Z,12.37
2022-09-12T16:03:56.365Z,12.21
2022-09-12T16:06:24.196Z,12.28
2022-09-12T16:08:51.531Z,12.26
2022-09-12T16:11:24.460Z,12.24
2022-09-12T16:13:56.953Z,12.13
2022-09-12T16:16:24.320Z,12.14
2022-09-12T16:18:51.843Z,12.24
2022-09-12T16:21:19.352Z,12.24
2022-09-12T16:23:48.260Z,12.28
2022-09-12T16:26:16.491Z,12.26
2022-09-12T16:28:44.369Z,12.16
2022-09-12T16:31:13.795Z,12.14
2022-09-12T16:33:41.473Z,12.29
2022-09-12T16:36:14.524Z,12.20
2022-09-12T16:38:52.956Z,12.23
2022-09-12T16:41:25.432Z,12.05
2022-09-12T16:43:53.375Z,12.06
2022-09-12T16:46:23.972Z,11.97
2022-09-12T16:48:57.841Z,11.90
2022-09-12T16:51:33.952Z,11.82
2022-09-12T16:54:01.726Z,11.84
2022-09-12T16:56:28.957Z,11.64
2022-09-12T16:58:56.316Z,11.80
2022-09-12T17:01:25.559Z,11.86
2022-09-12T17:03:54.884Z,11.93
2022-09-12T17:06:23.286Z,12.02
2022-09-12T17:08:52.580Z,11.92
2022-09-12T17:11:21.558Z,11.75
2022-09-12T17:14:04.347Z,11.77
2022-09-12T17:16:36.125Z,11.70
2022-09-12T17:19:07.258Z,11.66
2022-09-12T17:21:35.610Z,11.79
2022-09-12T17:24:05.140Z,11.64
2022-09-12T17:26:35.958Z,11.46
2022-09-12T17:29:03.925Z,11.55
2022-09-12T17:31:33.972Z,11.63
2022-09-12T17:34:02.115Z,11.72
2022-09-12T17:36:31.987Z,11.70
2022-09-12T17:39:00.307Z,11.82
2022-09-12T17:41:31.954Z,11.70
2022-09-12T17:44:00.729Z,11.63
2022-09-12T17:46:35.031Z,11.55
2022-09-12T17:49:05.474Z,11.65
2022-09-12T17:51:33.128Z,11.73
2022-09-12T17:54:12.180Z,11.55
2022-09-12T17:56:40.367Z,11.48
2022-09-12T17:59:10.854Z,11.64
2022-09-12T18:01:56.656Z,11.68
2022-09-12T18:04:24.296Z,11.73
2022-09-12T18:06:51.678Z,11.79
2022-09-12T18:09:24.953Z,11.70
2022-09-12T18:11:53.335Z,11.68
2022-09-12T18:14:24.864Z,11.76
2022-09-12T18:17:01.419Z,11.81
2022-09-12T18:19:29.145Z,11.75
2022-09-12T18:21:56.820Z,11.64
2022-09-12T18:24:24.658Z,11.67
2022-09-12T18:26:51.872Z,11.70
2022-09-12T18:29:20.156Z,11.78
2022-09-12T18:31:47.454Z,11.63
2022-09-12T18:34:16.230Z,11.70
2022-09-12T18:36:49.477Z,11.70
2022-09-12T18:39:18.012Z,11.67
2022-09-12T18:41:45.160Z,11.70
2022-09-12T18:44:12.713Z,11.71
2022-09-12T18:46:40.112Z,11.62
2022-09-12T18:49:07.902Z,11.60
2022-09-12T18:51:36.165Z,11.72
2022-09-12T18:54:06.502Z,11.89
2022-09-12T18:56:36.011Z,11.89
2022-09-12T18:59:05.442Z,11.83
2022-09-12T19:01:38.141Z,11.82
2022-09-12T19:04:07.696Z,11.87
2022-09-12T19:06:40.468Z,11.80
2022-09-12T19:09:09.235Z,11.79
2022-09-12T19:11:39.426Z,11.76
2022-09-12T19:14:07.735Z,11.78
2022-09-12T19:16:35.213Z,11.72
2022-09-12T19:19:03.144Z,11.73
2022-09-12T19:21:31.865Z,11.74
2022-09-12T19:24:01.792Z,11.85
2022-09-12T19:26:28.963Z,11.88
2022-09-12T19:28:57.104Z,11.66
2022-09-12T19:31:24.586Z,11.69
2022-09-12T19:33:55.054Z,11.74
2022-09-12T19:36:43.787Z,11.79
2022-09-12T19:39:10.313Z,11.80
2022-09-12T19:41:37.551Z,11.76
2022-09-12T19:44:05.182Z,11.69
2022-09-12T19:46:32.718Z,11.58
2022-09-12T19:49:00.091Z,11.61
2022-09-12T19:51:27.433Z,11.62
2022-09-12T19:53:54.766Z,11.60
2022-09-12T19:56:21.948Z,11.69
2022-09-12T19:58:55.816Z,11.63
2022-09-12T20:01:30.771Z,11.60
2022-09-12T20:03:58.997Z,11.66
2022-09-12T20:06:26.903Z,11.62
2022-09-12T20:08:54.709Z,11.57
2022-09-12T20:11:23.793Z,11.56
2022-09-12T20:13:51.586Z,11.59
2022-09-12T20:16:29.215Z,11.60
2022-09-12T20:18:59.907Z,11.55
2022-09-12T20:21:32.751Z,11.60
2022-09-12T20:24:04.327Z,11.51
2022-09-12T20:26:32.080Z,11.58
2022-09-12T20:29:00.339Z,11.74
2022-09-12T20:31:27.980Z,11.60
2022-09-12T20:33:55.324Z,11.41
2022-09-12T20:36:22.832Z,11.42
2022-09-12T20:38:52.981Z,11.44
2022-09-12T20:41:21.578Z,11.45
2022-09-12T20:43:56.818Z,11.46
2022-09-12T20:46:25.495Z,11.48
2022-09-12T20:48:52.943Z,11.51
2022-09-12T20:51:21.462Z,11.40
2022-09-12T20:53:52.306Z,11.31
2022-09-12T20:56:19.556Z,11.33
2022-09-12T20:58:46.851Z,11.36
2022-09-12T21:01:15.983Z,11.47
2022-09-12T21:03:44.485Z,11.34
2022-09-12T21:06:13.530Z,11.46
2022-09-12T21:08:41.851Z,11.62
2022-09-12T21:11:09.313Z,11.66
2022-09-12T21:13:37.416Z,11.65
2022-09-12T21:16:07.890Z,11.65
2022-09-12T21:18:35.583Z,11.71
2022-09-12T21:21:04.165Z,11.69
2022-09-12T21:23:31.904Z,11.64
2022-09-12T21:26:00.165Z,11.58
2022-09-12T21:28:28.133Z,11.72
2022-09-12T21:30:56.106Z,11.69
2022-09-12T21:33:23.913Z,11.69
2022-09-12T21:35:51.289Z,11.68
2022-09-12T21:38:19.973Z,11.64
2022-09-12T21:40:47.885Z,11.70
2022-09-12T21:43:15.386Z,11.68
2022-09-12T21:45:42.468Z,11.71
2022-09-12T21:48:09.581Z,11.64
2022-09-12T21:50:36.632Z,11.70
2022-09-12T21:53:03.926Z,11.67
2022-09-12T21:55:31.241Z,11.65
2022-09-12T21:57:58.427Z,11.66
2022-09-12T22:00:25.692Z,11.57
2022-09-12T22:02:53.817Z,11.51
2022-09-12T22:05:21.677Z,11.43
2022-09-12T22:07:48.741Z,11.46
2022-09-12T22:10:16.196Z,11.49
2022-09-12T22:12:46.049Z,11.29
2022-09-12T22:15:38.947Z,11.45
2022-09-12T22:18:01.265Z,11.47
2022-09-12T22:20:28.613Z,11.37
2022-09-12T22:23:14.196Z,11.42
2022-09-12T22:25:41.328Z,11.41
2022-09-12T22:28:08.400Z,11.38
2022-09-12T22:30:35.563Z,11.15
2022-09-12T22:33:02.627Z,11.05
2022-09-12T22:35:29.855Z,11.15
2022-09-12T22:37:56.938Z,11.27
2022-09-12T22:40:24.157Z,11.33
2022-09-12T22:42:52.812Z,11.31
2022-09-12T22:45:20.055Z,11.04
2022-09-12T22:47:47.399Z,11.05
2022-09-12T22:50:14.701Z,10.97
2022-09-12T22:52:41.775Z,11.18
2022-09-12T22:55:09.779Z,11.02
2022-09-12T22:57:37.855Z,11.15
2022-09-12T23:00:10.627Z,11.07
2022-09-12T23:02:38.223Z,10.64
2022-09-12T23:05:06.201Z,10.88
2022-09-12T23:07:33.739Z,10.98
2022-09-12T23:10:00.767Z,10.97
2022-09-12T23:12:27.921Z,10.90
2022-09-12T23:14:54.988Z,10.79
2022-09-12T23:17:22.058Z,10.76
2022-09-12T23:19:49.140Z,10.72
2022-09-12T23:22:16.251Z,10.67
2022-09-12T23:24:43.353Z,10.56
2022-09-12T23:27:10.625Z,10.75
2022-09-12T23:29:37.785Z,10.61
2022-09-12T23:32:05.061Z,10.63
2022-09-12T23:34:33.601Z,10.61
2022-09-12T23:37:00.701Z,10.56
2022-09-12T23:39:27.831Z,10.50
2022-09-12T23:41:55.630Z,10.41
2022-09-12T23:44:22.715Z,10.41
2022-09-12T23:46:49.772Z,10.52
2022-09-12T23:49:16.851Z,10.52
2022-09-12T23:51:44.830Z,10.50
2022-09-12T23:54:11.860Z,10.54
2022-09-12T23:56:39.062Z,10.49
2022-09-12T23:59:06.228Z,10.45
